Latest Weather Observations for Legendre Island

IDW60801

Issued at 1:33 pm WST Thursday 23 January 2020 (issued every 10 minutes, with the page automatically refreshed every 10 minutes)

About weather observations | Map of weather stations | Latest weather observations for WA | Other Formats
Station Details ID: 004095 Name: LEGENDRE ISLAND Lat: -20.36 Lon: 116.84 Height: 29.0 m
Data from the previous 72 hours. | See also: Recent months at Legendre Island
Date/Time
WST
Temp
°C
App
Temp
°C
Dew
Point
°C
Rel
Hum
%
Delta-T
°C
Wind Press
QNH
hPa
Press
MSL
hPa
Rain since
9am
mm
Dir  Spd
km/h
Gust
km/h
Spd
kts
Gust
kts
23/01:30pm 31.7 39.0 31.7 100 0.0 W 22 28 12 15 1006.6 1006.4 -
23/01:00pm 30.8 36.9 30.8 100 0.0 W 24 28 13 15 1006.6 1006.4 -
23/12:30pm 31.4 38.0 31.4 100 0.0 W 24 28 13 15 1006.8 1006.6 -
23/12:00pm 31.0 37.3 31.0 100 0.0 W 24 28 13 15 1007.0 1006.8 -
23/11:30am 30.8 36.9 30.8 100 0.0 W 24 28 13 15 1007.2 1007.0 -
23/11:00am 30.5 36.4 30.5 100 0.0 W 24 28 13 15 1007.4 1007.2 -
23/10:30am 30.2 36.2 30.2 100 0.0 W 22 28 12 15 1007.5 1007.3 -
23/10:00am 30.1 35.6 30.1 100 0.0 W 24 28 13 15 1007.5 1007.3 -
23/09:30am 29.9 35.6 29.9 100 0.0 WSW 22 28 12 15 1007.5 1007.3 -
23/09:00am 29.4 34.0 29.4 100 0.0 WSW 26 32 14 17 1007.4 1007.2 -
23/08:30am 29.0 33.3 29.0 100 0.0 WSW 26 30 14 16 1007.3 1007.1 -
23/08:00am 28.9 33.5 28.9 100 0.0 W 24 30 13 16 1007.1 1006.9 -
23/07:30am 28.4 32.6 28.4 100 0.0 W 24 30 13 16 1007.0 1006.8 -
23/07:00am 27.9 31.4 27.9 100 0.0 W 26 32 14 17 1006.9 1006.7 -
23/06:30am 27.3 30.3 27.3 100 0.0 W 26 30 14 16 1006.6 1006.4 -
23/06:00am 27.1 30.0 27.1 100 0.0 W 26 32 14 17 1006.4 1006.2 -
23/05:30am 27.2 30.5 27.2 100 0.0 W 24 30 13 16 1006.1 1005.9 -
23/05:00am 27.2 29.8 27.2 100 0.0 W 28 33 15 18 1005.9 1005.7 -
23/04:30am 27.1 29.6 27.1 100 0.0 W 28 33 15 18 1005.9 1005.7 -
23/04:00am 27.2 29.8 27.2 100 0.0 W 28 33 15 18 1005.8 1005.6 -
23/03:30am 27.2 29.8 27.2 100 0.0 W 28 32 15 17 1005.8 1005.6 -
23/03:00am 27.3 30.0 27.3 100 0.0 W 28 33 15 18 1005.8 1005.6 -
23/02:30am 27.3 30.3 27.3 100 0.0 W 26 32 14 17 1005.8 1005.6 -
23/02:00am 27.4 30.1 27.4 100 0.0 W 28 33 15 18 1006.1 1005.9 -
23/01:30am 27.4 29.7 27.4 100 0.0 W 30 35 16 19 1006.4 1006.2 -
23/01:00am 27.4 29.7 27.4 100 0.0 W 30 35 16 19 1006.8 1006.6 -
23/12:30am 27.5 29.5 27.5 100 0.0 W 32 35 17 19 1006.9 1006.7 -
23/12:00am 27.6 29.5 27.6 100 0.0 W 33 39 18 21 1007.1 1006.9 -
 
Date/Time
WST
Temp
°C
App
Temp
°C
Dew
Point
°C
Rel
Hum
%
Delta-T
°C
Wind Press
QNH
hPa
Press
MSL
hPa
Rain since
9am
mm
Dir  Spd
km/h
Gust
km/h
Spd
kts
Gust
kts
22/11:30pm 27.8 30.1 27.8 100 0.0 W 32 39 17 21 1007.3 1007.1 -
22/11:00pm 27.9 30.0 27.9 100 0.0 W 33 39 18 21 1007.6 1007.4 -
22/10:30pm 27.8 29.9 27.8 100 0.0 W 33 39 18 21 1007.6 1007.4 -
22/10:00pm 27.6 29.1 27.6 100 0.0 W 35 41 19 22 1007.5 1007.3 -
22/09:30pm 27.5 29.0 27.5 100 0.0 W 35 41 19 22 1007.1 1006.9 -
22/09:00pm 27.5 29.0 27.5 100 0.0 WNW 35 43 19 23 1006.9 1006.7 -
22/08:30pm 27.6 29.1 27.6 100 0.0 W 35 43 19 23 1006.7 1006.5 -
22/08:00pm 27.6 29.1 27.6 100 0.0 W 35 43 19 23 1006.3 1006.1 -
22/07:30pm 27.8 29.5 27.8 100 0.0 W 35 41 19 22 1006.1 1005.9 -
22/07:00pm 28.0 30.2 28.0 100 0.0 W 33 39 18 21 1006.0 1005.8 -
22/06:30pm 28.5 31.1 28.5 100 0.0 W 33 39 18 21 1005.8 1005.6 -
22/06:00pm 29.1 32.3 29.1 100 0.0 W 32 39 17 21 1005.9 1005.7 -
22/05:30pm 29.5 32.8 29.5 100 0.0 W 33 37 18 20 1005.7 1005.5 -
22/05:00pm 30.3 34.9 30.3 100 0.0 W 30 33 16 18 1005.7 1005.5 -
22/04:30pm 30.4 35.0 30.4 100 0.0 W 30 33 16 18 1005.7 1005.5 -
22/04:00pm 30.7 35.6 30.7 100 0.0 W 30 33 16 18 1005.9 1005.7 -
22/03:30pm 30.8 35.8 30.8 100 0.0 W 30 35 16 19 1006.2 1006.0 -
22/03:00pm 30.8 35.8 30.8 100 0.0 W 30 35 16 19 1006.4 1006.2 -
22/02:30pm 30.8 35.4 30.8 100 0.0 W 32 35 17 19 1006.5 1006.3 -
22/02:00pm 31.2 35.9 30.5 96 0.5 W 30 33 16 18 1006.7 1006.5 -
22/01:30pm 31.2 36.1 30.7 97 0.4 W 30 35 16 19 1007.1 1006.9 -
22/01:00pm 31.4 36.1 30.5 95 0.7 W 30 33 16 18 1007.3 1007.1 -
22/12:30pm 31.8 36.8 30.9 95 0.7 W 30 35 16 19 1007.4 1007.2 -
22/12:00pm 31.1 35.2 30.2 95 0.7 W 32 35 17 19 1007.6 1007.4 -
22/11:30am 31.2 36.3 30.5 96 0.5 W 28 33 15 18 1008.1 1007.9 -
22/11:00am 31.9 37.0 31.0 95 0.7 W 30 33 16 18 1008.4 1008.2 -
22/10:30am 31.7 37.0 30.8 95 0.7 W 28 33 15 18 1008.5 1008.3 -
22/10:00am 31.6 36.9 30.7 95 0.7 W 28 32 15 17 1008.5 1008.3 -
22/09:30am 30.9 36.0 30.5 98 0.3 W 28 32 15 17 1008.6 1008.4 -
22/09:00am 31.1 35.5 29.1 89 1.5 WSW 26 32 14 17 1008.4 1008.2 -
22/08:30am 31.0 35.4 29.7 93 1.0 WSW 28 33 15 18 1008.1 1007.9 -
22/08:00am 30.4 34.0 29.1 93 1.0 WSW 30 35 16 19 1008.0 1007.8 -
22/07:30am 29.9 33.4 29.0 95 0.7 WSW 30 35 16 19 1007.8 1007.6 -
22/07:00am 29.5 33.3 29.3 99 0.1 WSW 30 37 16 20 1007.4 1007.2 -
22/06:30am 29.3 33.1 29.3 100 0.0 WSW 30 33 16 18 1007.3 1007.1 -
22/06:00am 29.0 32.5 29.0 100 0.0 WSW 30 35 16 19 1007.0 1006.8 -
22/05:30am 28.7 32.4 28.7 100 0.0 WSW 28 35 15 19 1006.8 1006.6 -
22/05:00am 28.7 32.0 28.7 100 0.0 WSW 30 35 16 19 1006.6 1006.4 -
22/04:30am 28.8 31.8 28.8 100 0.0 WSW 32 39 17 21 1006.6 1006.4 -
22/04:00am 28.6 31.4 28.6 100 0.0 WSW 32 37 17 20 1006.5 1006.3 -
22/03:30am 28.6 31.4 28.6 100 0.0 WSW 32 37 17 20 1006.3 1006.1 -
22/03:00am 28.4 31.5 28.4 100 0.0 WSW 30 35 16 19 1006.5 1006.3 -
22/02:30am 28.2 30.7 28.2 100 0.0 WSW 32 37 17 20 1006.5 1006.3 -
22/02:00am 28.1 30.6 28.1 100 0.0 WSW 32 37 17 20 1006.6 1006.4 -
22/01:30am 27.9 30.2 27.9 100 0.0 W 32 41 17 22 1006.6 1006.4 -
22/01:00am 27.8 29.5 27.8 100 0.0 W 35 43 19 23 1006.8 1006.6 -
22/12:30am 27.9 30.0 27.9 100 0.0 W 33 41 18 22 1006.9 1006.7 -
22/12:00am 27.8 30.1 27.8 100 0.0 W 32 39 17 21 1007.3 1007.1 -
 
Date/Time
WST
Temp
°C
App
Temp
°C
Dew
Point
°C
Rel
Hum
%
Delta-T
°C
Wind Press
QNH
hPa
Press
MSL
hPa
Rain since
9am
mm
Dir  Spd
km/h
Gust
km/h
Spd
kts
Gust
kts
21/11:30pm 28.0 30.4 28.0 100 0.0 W 32 37 17 20 1007.7 1007.5 -
21/11:00pm 28.0 30.8 28.0 100 0.0 W 30 37 16 20 1008.2 1008.0 -
21/10:30pm 28.0 31.2 28.0 100 0.0 W 28 32 15 17 1008.3 1008.1 -
21/10:00pm 28.1 31.3 28.1 100 0.0 W 28 32 15 17 1008.4 1008.2 -
21/09:30pm 28.3 32.4 28.3 100 0.0 W 24 30 13 16 1008.5 1008.3 -
21/09:00pm 28.3 31.7 28.3 100 0.0 W 28 33 15 18 1007.9 1007.7 -
21/08:30pm 28.4 31.5 28.4 100 0.0 W 30 35 16 19 1007.5 1007.3 -
21/08:00pm 28.6 31.4 28.6 100 0.0 W 32 37 17 20 1007.1 1006.9 -
21/07:30pm 28.6 31.4 28.6 100 0.0 W 32 39 17 21 1006.5 1006.3 -
21/07:00pm 28.5 31.1 28.5 100 0.0 W 33 39 18 21 1006.2 1006.0 -
21/06:30pm 29.1 32.1 29.1 100 0.0 W 33 37 18 20 1006.4 1006.2 -
21/06:00pm 29.5 33.0 29.5 100 0.0 W 32 37 17 20 1006.3 1006.1 -
21/05:30pm 30.1 33.9 30.1 100 0.0 W 33 39 18 21 1005.9 1005.7 -
21/05:00pm 30.3 34.3 30.3 100 0.0 W 33 41 18 22 1005.6 1005.4 -
21/04:30pm 30.3 33.5 30.3 100 0.0 W 37 43 20 23 1005.7 1005.5 -
21/04:00pm 31.5 36.1 31.5 100 0.0 WNW 35 43 19 23 1005.6 1005.4 -
21/03:30pm 31.6 36.3 31.6 100 0.0 WNW 35 41 19 22 1006.1 1005.9 -
21/03:00pm 31.6 36.9 31.6 100 0.0 WNW 32 39 17 21 1006.5 1006.3 -
21/02:30pm 31.9 37.8 31.9 100 0.0 WNW 30 35 16 19 1006.9 1006.7 -
21/02:00pm 31.7 37.8 31.7 100 0.0 WNW 28 33 15 18 1007.0 1006.8 -
21/01:30pm 31.9 38.2 31.9 100 0.0 WNW 28 33 15 18 1007.3 1007.1 -
21/01:00pm 31.9 38.2 31.9 100 0.0 WNW 28 32 15 17 1007.3 1007.1 -
21/12:30pm 32.1 39.3 32.1 100 0.0 W 24 28 13 15 1007.4 1007.2 -
21/12:00pm 31.8 38.8 31.8 100 0.0 W 24 28 13 15 1007.6 1007.4 -
21/11:30am 31.9 39.0 31.9 100 0.0 W 24 28 13 15 1007.9 1007.7 -
21/11:00am 31.7 38.8 31.5 99 0.2 W 22 26 12 14 1007.9 1007.7 -
21/10:30am 31.9 38.9 31.4 97 0.4 W 22 28 12 15 1008.0 1007.8 -
21/10:00am 31.9 38.2 31.0 95 0.7 WSW 24 28 13 15 1008.1 1007.9 -
21/09:30am 31.7 38.8 31.5 99 0.2 WSW 22 26 12 14 1008.0 1007.8 -
21/09:00am 31.3 37.8 31.3 100 0.0 WSW 24 26 13 14 1008.0 1007.8 -
21/08:30am 30.9 37.8 30.9 100 0.0 WSW 20 26 11 14 1008.0 1007.8 -
21/08:00am 30.4 36.6 30.4 100 0.0 WSW 22 24 12 13 1007.9 1007.7 -
21/07:30am 30.1 36.0 30.1 100 0.0 WSW 22 26 12 14 1007.7 1007.5 -
21/07:00am 29.4 34.8 29.4 100 0.0 WSW 22 26 12 14 1007.5 1007.3 -
21/06:30am 29.1 33.8 29.1 100 0.0 WSW 24 28 13 15 1007.2 1007.0 -
21/06:00am 28.7 33.5 28.7 100 0.0 W 22 28 12 15 1006.9 1006.7 -
21/05:30am 28.7 33.1 28.7 100 0.0 WSW 24 30 13 16 1006.4 1006.2 -
21/05:00am 28.6 33.7 28.6 100 0.0 W 20 24 11 13 1006.3 1006.1 -
21/04:30am 28.4 33.4 28.4 100 0.0 W 20 24 11 13 1006.3 1006.1 -
21/04:00am 28.5 33.5 28.5 100 0.0 W 20 24 11 13 1006.3 1006.1 -
21/03:30am 28.4 33.4 28.4 100 0.0 W 20 24 11 13 1006.3 1006.1 -
21/03:00am 28.5 33.5 28.5 100 0.0 W 20 26 11 14 1006.2 1006.0 -
21/02:30am 28.6 33.9 28.6 100 0.0 W 19 24 10 13 1006.4 1006.2 -
21/02:00am 28.6 34.7 28.6 100 0.0 W 15 19 8 10 1006.8 1006.6 -
21/01:30am 28.5 34.1 28.5 100 0.0 W 17 20 9 11 1007.2 1007.0 -
21/01:00am 28.4 33.6 28.4 100 0.0 WNW 19 20 10 11 1007.0 1006.8 -
21/12:30am 28.7 34.5 28.7 100 0.0 WNW 17 20 9 11 1007.3 1007.1 -
21/12:00am 29.0 34.6 29.0 100 0.0 W 19 20 10 11 1007.5 1007.3 -
 
Date/Time
WST
Temp
°C
App
Temp
°C
Dew
Point
°C
Rel
Hum
%
Delta-T
°C
Wind Press
QNH
hPa
Press
MSL
hPa
Rain since
9am
mm
Dir  Spd
km/h
Gust
km/h
Spd
kts
Gust
kts
20/11:30pm 29.1 35.2 29.1 100 0.0 W 17 22 9 12 1007.6 1007.4 -
20/11:00pm 29.1 35.6 29.1 100 0.0 WSW 15 19 8 10 1008.1 1007.9 -
20/10:30pm 29.2 35.3 29.2 100 0.0 WSW 17 19 9 10 1008.2 1008.0 -
20/10:00pm 29.4 35.7 29.4 100 0.0 WSW 17 22 9 12 1008.1 1007.9 -
20/09:30pm 29.3 35.0 29.3 100 0.0 WSW 20 24 11 13 1007.7 1007.5 -
20/09:00pm 29.5 35.5 29.5 100 0.0 WSW 19 22 10 12 1007.7 1007.5 -
20/08:30pm 29.3 35.1 29.3 100 0.0 WSW 19 22 10 12 1007.9 1007.7 -
20/08:00pm 29.3 35.0 29.3 100 0.0 WSW 20 24 11 13 1007.3 1007.1 -
20/07:30pm 29.3 35.1 29.3 100 0.0 W 19 20 10 11 1007.0 1006.8 -
20/07:00pm 29.5 34.9 29.5 100 0.0 W 22 26 12 14 1006.4 1006.2 -
20/06:30pm 29.9 35.3 29.9 100 0.0 W 24 28 13 15 1005.9 1005.7 -
20/06:00pm 30.7 36.7 30.7 100 0.0 WNW 24 28 13 15 1005.7 1005.5 -
20/05:30pm 30.9 37.1 30.9 100 0.0 WNW 24 28 13 15 1005.4 1005.2 -
20/05:00pm 31.4 38.0 31.4 100 0.0 WNW 24 30 13 16 1005.5 1005.3 -
20/04:30pm 31.3 37.8 31.3 100 0.0 NW 24 28 13 15 1005.5 1005.3 -
20/04:00pm 32.1 39.7 32.1 100 0.0 WNW 22 26 12 14 1005.5 1005.3 -
20/03:30pm 32.0 39.5 32.0 100 0.0 WNW 22 26 12 14 1005.7 1005.5 -
20/03:00pm 32.1 39.9 31.9 99 0.2 WNW 20 22 11 12 1006.0 1005.8 -
20/02:30pm 32.1 40.1 32.1 100 0.0 WNW 20 26 11 14 1006.2 1006.0 -
20/02:00pm 31.9 39.9 31.9 100 0.0 W 19 24 10 13 1006.4 1006.2 -

Other formats

Comma delimited format used in spreadsheet applications
http://www.bom.gov.au/fwo/IDW60801/IDW60801.94307.axf

JavaScript Object Notation format (JSON) in row-major order
http://www.bom.gov.au/fwo/IDW60801/IDW60801.94307.json

Data quality

Most of these data are generated automatically and are frequently updated. Quality checks on data are not normally performed. It is possible for incorrect values to appear. Refer to information at About Latest Weather Observations and please check the disclaimer before using these data.